sensor_id;sensor_type;location;lat;lon;timestamp;temperature;humidity
22069;DHT22;13887;57.196;-2.100;2023-02-22T00:01:54;9.14;82.68
22069;DHT22;13887;57.196;-2.100;2023-02-22T00:04:37;9.15;82.52
22069;DHT22;13887;57.196;-2.100;2023-02-22T00:07:05;9.15;82.63
22069;DHT22;13887;57.196;-2.100;2023-02-22T00:09:33;9.14;82.68
22069;DHT22;13887;57.196;-2.100;2023-02-22T00:12:00;9.12;82.63
22069;DHT22;13887;57.196;-2.100;2023-02-22T00:14:27;9.12;82.46
22069;DHT22;13887;57.196;-2.100;2023-02-22T00:16:54;9.12;82.60
22069;DHT22;13887;57.196;-2.100;2023-02-22T00:19:26;9.11;82.65
22069;DHT22;13887;57.196;-2.100;2023-02-22T00:21:57;9.12;82.71
22069;DHT22;13887;57.196;-2.100;2023-02-22T00:24:24;9.10;82.53
22069;DHT22;13887;57.196;-2.100;2023-02-22T00:26:53;9.12;82.52
22069;DHT22;13887;57.196;-2.100;2023-02-22T00:29:24;9.12;82.49
22069;DHT22;13887;57.196;-2.100;2023-02-22T00:31:51;9.12;82.46
22069;DHT22;13887;57.196;-2.100;2023-02-22T00:34:18;9.11;82.48
22069;DHT22;13887;57.196;-2.100;2023-02-22T00:36:48;9.11;82.38
22069;DHT22;13887;57.196;-2.100;2023-02-22T00:39:16;9.09;82.35
22069;DHT22;13887;57.196;-2.100;2023-02-22T00:41:43;9.10;82.46
22069;DHT22;13887;57.196;-2.100;2023-02-22T00:44:10;9.11;82.40
22069;DHT22;13887;57.196;-2.100;2023-02-22T00:46:38;9.11;82.36
22069;DHT22;13887;57.196;-2.100;2023-02-22T00:49:05;9.11;82.33
22069;DHT22;13887;57.196;-2.100;2023-02-22T00:51:32;9.15;82.33
22069;DHT22;13887;57.196;-2.100;2023-02-22T00:53:59;9.12;82.28
22069;DHT22;13887;57.196;-2.100;2023-02-22T00:56:26;9.14;82.38
22069;DHT22;13887;57.196;-2.100;2023-02-22T00:58:54;9.12;82.36
22069;DHT22;13887;57.196;-2.100;2023-02-22T01:01:21;9.11;82.33
22069;DHT22;13887;57.196;-2.100;2023-02-22T01:03:50;9.12;82.30
22069;DHT22;13887;57.196;-2.100;2023-02-22T01:06:18;9.14;82.23
22069;DHT22;13887;57.196;-2.100;2023-02-22T01:08:46;9.16;82.17
22069;DHT22;13887;57.196;-2.100;2023-02-22T01:11:15;9.12;82.26
22069;DHT22;13887;57.196;-2.100;2023-02-22T01:13:43;9.14;82.17
22069;DHT22;13887;57.196;-2.100;2023-02-22T01:16:13;9.16;82.15
22069;DHT22;13887;57.196;-2.100;2023-02-22T01:18:40;9.17;82.09
22069;DHT22;13887;57.196;-2.100;2023-02-22T01:21:07;9.16;82.15
22069;DHT22;13887;57.196;-2.100;2023-02-22T01:23:34;9.17;82.17
22069;DHT22;13887;57.196;-2.100;2023-02-22T01:26:03;9.16;82.16
22069;DHT22;13887;57.196;-2.100;2023-02-22T01:28:32;9.15;82.19
22069;DHT22;13887;57.196;-2.100;2023-02-22T01:31:01;9.15;82.14
22069;DHT22;13887;57.196;-2.100;2023-02-22T01:33:29;9.16;82.11
22069;DHT22;13887;57.196;-2.100;2023-02-22T01:35:56;9.17;82.07
22069;DHT22;13887;57.196;-2.100;2023-02-22T01:38:23;9.15;82.17
22069;DHT22;13887;57.196;-2.100;2023-02-22T01:40:50;9.14;82.12
22069;DHT22;13887;57.196;-2.100;2023-02-22T01:43:23;9.15;82.18
22069;DHT22;13887;57.196;-2.100;2023-02-22T01:48:33;9.14;82.27
22069;DHT22;13887;57.196;-2.100;2023-02-22T01:51:14;9.15;82.22
22069;DHT22;13887;57.196;-2.100;2023-02-22T01:53:54;9.12;82.28
22069;DHT22;13887;57.196;-2.100;2023-02-22T01:56:24;9.10;82.27
22069;DHT22;13887;57.196;-2.100;2023-02-22T01:59:00;9.12;82.32
22069;DHT22;13887;57.196;-2.100;2023-02-22T02:01:28;9.10;82.33
22069;DHT22;13887;57.196;-2.100;2023-02-22T02:03:57;9.10;82.36
22069;DHT22;13887;57.196;-2.100;2023-02-22T02:06:27;9.10;82.29
22069;DHT22;13887;57.196;-2.100;2023-02-22T02:09:03;9.15;82.25
22069;DHT22;13887;57.196;-2.100;2023-02-22T02:11:32;9.14;82.18
22069;DHT22;13887;57.196;-2.100;2023-02-22T02:13:59;9.11;82.23
22069;DHT22;13887;57.196;-2.100;2023-02-22T02:16:53;9.12;82.25
22069;DHT22;13887;57.196;-2.100;2023-02-22T02:19:53;9.12;82.23
22069;DHT22;13887;57.196;-2.100;2023-02-22T02:31:09;9.11;82.35
22069;DHT22;13887;57.196;-2.100;2023-02-22T02:39:37;9.08;82.39
22069;DHT22;13887;57.196;-2.100;2023-02-22T02:42:07;9.09;82.39
22069;DHT22;13887;57.196;-2.100;2023-02-22T02:44:41;9.09;82.39
22069;DHT22;13887;57.196;-2.100;2023-02-22T02:47:22;9.10;82.44
22069;DHT22;13887;57.196;-2.100;2023-02-22T02:50:05;9.09;82.42
22069;DHT22;13887;57.196;-2.100;2023-02-22T02:52:34;9.10;82.39
22069;DHT22;13887;57.196;-2.100;2023-02-22T02:55:03;9.11;82.32
22069;DHT22;13887;57.196;-2.100;2023-02-22T02:57:32;9.11;82.31
22069;DHT22;13887;57.196;-2.100;2023-02-22T02:59:58;9.11;82.35
22069;DHT22;13887;57.196;-2.100;2023-02-22T03:02:42;9.11;82.39
22069;DHT22;13887;57.196;-2.100;2023-02-22T03:11:17;9.10;82.44
22069;DHT22;13887;57.196;-2.100;2023-02-22T03:13:52;9.12;82.41
22069;DHT22;13887;57.196;-2.100;2023-02-22T03:16:44;9.11;82.42
22069;DHT22;13887;57.196;-2.100;2023-02-22T03:19:25;9.10;82.50
22069;DHT22;13887;57.196;-2.100;2023-02-22T03:22:01;9.12;82.39
22069;DHT22;13887;57.196;-2.100;2023-02-22T03:24:45;9.09;82.52
22069;DHT22;13887;57.196;-2.100;2023-02-22T03:27:33;9.08;82.68
22069;DHT22;13887;57.196;-2.100;2023-02-22T03:30:10;8.96;82.57
22069;DHT22;13887;57.196;-2.100;2023-02-22T03:32:41;8.90;82.47
22069;DHT22;13887;57.196;-2.100;2023-02-22T03:35:17;8.89;82.41
22069;DHT22;13887;57.196;-2.100;2023-02-22T03:37:48;8.90;82.39
22069;DHT22;13887;57.196;-2.100;2023-02-22T03:40:21;8.86;82.17
22069;DHT22;13887;57.196;-2.100;2023-02-22T03:43:08;8.87;81.90
22069;DHT22;13887;57.196;-2.100;2023-02-22T03:45:42;8.87;81.78
22069;DHT22;13887;57.196;-2.100;2023-02-22T03:50:42;8.88;81.78
22069;DHT22;13887;57.196;-2.100;2023-02-22T03:53:09;8.89;81.78
22069;DHT22;13887;57.196;-2.100;2023-02-22T03:55:39;8.83;81.74
22069;DHT22;13887;57.196;-2.100;2023-02-22T03:58:10;8.87;81.62
22069;DHT22;13887;57.196;-2.100;2023-02-22T04:00:37;8.89;81.69
22069;DHT22;13887;57.196;-2.100;2023-02-22T04:03:05;8.86;81.57
22069;DHT22;13887;57.196;-2.100;2023-02-22T04:05:32;8.81;81.46
22069;DHT22;13887;57.196;-2.100;2023-02-22T04:08:00;8.76;81.59
22069;DHT22;13887;57.196;-2.100;2023-02-22T04:10:29;8.79;81.78
22069;DHT22;13887;57.196;-2.100;2023-02-22T04:12:58;8.81;81.81
22069;DHT22;13887;57.196;-2.100;2023-02-22T04:15:25;8.80;81.85
22069;DHT22;13887;57.196;-2.100;2023-02-22T04:17:58;8.78;81.96
22069;DHT22;13887;57.196;-2.100;2023-02-22T04:20:25;8.78;82.10
22069;DHT22;13887;57.196;-2.100;2023-02-22T04:22:59;8.66;82.49
22069;DHT22;13887;57.196;-2.100;2023-02-22T04:25:26;8.64;82.67
22069;DHT22;13887;57.196;-2.100;2023-02-22T04:27:55;8.66;82.66
22069;DHT22;13887;57.196;-2.100;2023-02-22T04:30:37;8.64;82.54
22069;DHT22;13887;57.196;-2.100;2023-02-22T04:33:08;8.67;82.69
22069;DHT22;13887;57.196;-2.100;2023-02-22T04:35:35;8.66;82.61
22069;DHT22;13887;57.196;-2.100;2023-02-22T04:38:04;8.56;82.83
22069;DHT22;13887;57.196;-2.100;2023-02-22T04:40:31;8.60;82.74
22069;DHT22;13887;57.196;-2.100;2023-02-22T04:42:58;8.59;82.72
22069;DHT22;13887;57.196;-2.100;2023-02-22T04:45:26;8.57;82.82
22069;DHT22;13887;57.196;-2.100;2023-02-22T04:47:53;8.57;82.75
22069;DHT22;13887;57.196;-2.100;2023-02-22T04:50:20;8.53;82.77
22069;DHT22;13887;57.196;-2.100;2023-02-22T04:52:48;8.53;82.72
22069;DHT22;13887;57.196;-2.100;2023-02-22T04:55:15;8.52;82.75
22069;DHT22;13887;57.196;-2.100;2023-02-22T04:57:42;8.55;82.70
22069;DHT22;13887;57.196;-2.100;2023-02-22T05:00:14;8.48;82.78
22069;DHT22;13887;57.196;-2.100;2023-02-22T05:02:43;8.49;82.62
22069;DHT22;13887;57.196;-2.100;2023-02-22T05:05:19;8.48;82.57
22069;DHT22;13887;57.196;-2.100;2023-02-22T05:07:48;8.51;82.46
22069;DHT22;13887;57.196;-2.100;2023-02-22T05:10:16;8.49;82.36
22069;DHT22;13887;57.196;-2.100;2023-02-22T05:12:43;8.51;82.51
22069;DHT22;13887;57.196;-2.100;2023-02-22T05:15:15;8.51;82.40
22069;DHT22;13887;57.196;-2.100;2023-02-22T05:17:42;8.50;82.38
22069;DHT22;13887;57.196;-2.100;2023-02-22T05:20:34;8.49;82.42
22069;DHT22;13887;57.196;-2.100;2023-02-22T05:23:02;8.42;82.61
22069;DHT22;13887;57.196;-2.100;2023-02-22T05:25:29;8.44;82.76
22069;DHT22;13887;57.196;-2.100;2023-02-22T05:28:06;8.44;82.59
22069;DHT22;13887;57.196;-2.100;2023-02-22T05:30:35;8.39;82.32
22069;DHT22;13887;57.196;-2.100;2023-02-22T05:33:05;8.34;82.36
22069;DHT22;13887;57.196;-2.100;2023-02-22T05:35:32;8.36;82.39
22069;DHT22;13887;57.196;-2.100;2023-02-22T05:38:00;8.29;82.29
22069;DHT22;13887;57.196;-2.100;2023-02-22T05:40:29;8.32;81.75
22069;DHT22;13887;57.196;-2.100;2023-02-22T05:42:57;8.22;81.78
22069;DHT22;13887;57.196;-2.100;2023-02-22T05:45:26;8.24;81.59
22069;DHT22;13887;57.196;-2.100;2023-02-22T05:47:54;8.26;81.32
22069;DHT22;13887;57.196;-2.100;2023-02-22T05:50:21;8.31;81.55
22069;DHT22;13887;57.196;-2.100;2023-02-22T05:52:49;8.28;81.55
22069;DHT22;13887;57.196;-2.100;2023-02-22T05:55:18;8.27;81.77
22069;DHT22;13887;57.196;-2.100;2023-02-22T05:57:46;8.27;81.65
22069;DHT22;13887;57.196;-2.100;2023-02-22T06:00:22;8.24;81.56
22069;DHT22;13887;57.196;-2.100;2023-02-22T06:02:57;8.22;81.74
22069;DHT22;13887;57.196;-2.100;2023-02-22T06:05:25;8.27;81.47
22069;DHT22;13887;57.196;-2.100;2023-02-22T06:07:52;8.24;81.50
22069;DHT22;13887;57.196;-2.100;2023-02-22T06:10:20;8.22;81.63
22069;DHT22;13887;57.196;-2.100;2023-02-22T06:12:48;8.24;81.61
22069;DHT22;13887;57.196;-2.100;2023-02-22T06:15:17;8.23;81.61
22069;DHT22;13887;57.196;-2.100;2023-02-22T06:17:45;8.23;81.61
22069;DHT22;13887;57.196;-2.100;2023-02-22T06:20:15;8.26;81.59
22069;DHT22;13887;57.196;-2.100;2023-02-22T06:22:42;8.23;81.48
22069;DHT22;13887;57.196;-2.100;2023-02-22T06:25:13;8.17;81.89
22069;DHT22;13887;57.196;-2.100;2023-02-22T06:27:41;8.19;81.64
22069;DHT22;13887;57.196;-2.100;2023-02-22T06:30:09;8.23;81.60
22069;DHT22;13887;57.196;-2.100;2023-02-22T06:32:39;8.22;81.66
22069;DHT22;13887;57.196;-2.100;2023-02-22T06:35:06;8.23;81.78
22069;DHT22;13887;57.196;-2.100;2023-02-22T06:37:33;8.22;81.73
22069;DHT22;13887;57.196;-2.100;2023-02-22T06:40:01;8.20;81.78
22069;DHT22;13887;57.196;-2.100;2023-02-22T06:42:31;8.21;81.81
22069;DHT22;13887;57.196;-2.100;2023-02-22T06:44:58;8.20;81.96
22069;DHT22;13887;57.196;-2.100;2023-02-22T06:47:26;8.21;81.94
22069;DHT22;13887;57.196;-2.100;2023-02-22T06:49:53;8.21;81.75
22069;DHT22;13887;57.196;-2.100;2023-02-22T06:52:21;8.22;81.80
22069;DHT22;13887;57.196;-2.100;2023-02-22T06:54:49;8.20;81.99
22069;DHT22;13887;57.196;-2.100;2023-02-22T06:57:16;8.21;81.84
22069;DHT22;13887;57.196;-2.100;2023-02-22T06:59:43;8.17;82.04
22069;DHT22;13887;57.196;-2.100;2023-02-22T07:02:11;8.17;82.19
22069;DHT22;13887;57.196;-2.100;2023-02-22T07:04:38;8.19;81.97
22069;DHT22;13887;57.196;-2.100;2023-02-22T07:07:09;8.16;81.98
22069;DHT22;13887;57.196;-2.100;2023-02-22T07:09:36;8.18;82.10
22069;DHT22;13887;57.196;-2.100;2023-02-22T07:12:04;8.16;81.99
22069;DHT22;13887;57.196;-2.100;2023-02-22T07:14:31;8.19;81.87
22069;DHT22;13887;57.196;-2.100;2023-02-22T07:16:58;8.16;82.20
22069;DHT22;13887;57.196;-2.100;2023-02-22T07:19:25;8.09;82.07
22069;DHT22;13887;57.196;-2.100;2023-02-22T07:21:52;8.06;82.40
22069;DHT22;13887;57.196;-2.100;2023-02-22T07:24:25;8.08;82.33
22069;DHT22;13887;57.196;-2.100;2023-02-22T07:26:54;8.02;82.33
22069;DHT22;13887;57.196;-2.100;2023-02-22T07:29:21;8.05;82.38
22069;DHT22;13887;57.196;-2.100;2023-02-22T07:31:48;8.01;82.36
22069;DHT22;13887;57.196;-2.100;2023-02-22T07:34:15;8.01;82.42
22069;DHT22;13887;57.196;-2.100;2023-02-22T07:36:42;8.02;82.32
22069;DHT22;13887;57.196;-2.100;2023-02-22T07:39:09;8.01;82.18
22069;DHT22;13887;57.196;-2.100;2023-02-22T07:41:36;7.96;82.68
22069;DHT22;13887;57.196;-2.100;2023-02-22T07:44:12;7.99;82.36
22069;DHT22;13887;57.196;-2.100;2023-02-22T07:46:39;7.96;82.54
22069;DHT22;13887;57.196;-2.100;2023-02-22T07:49:07;7.92;82.51
22069;DHT22;13887;57.196;-2.100;2023-02-22T07:51:35;7.88;82.51
22069;DHT22;13887;57.196;-2.100;2023-02-22T07:54:02;7.90;82.51
22069;DHT22;13887;57.196;-2.100;2023-02-22T07:56:29;7.86;82.58
22069;DHT22;13887;57.196;-2.100;2023-02-22T07:58:56;7.89;82.18
22069;DHT22;13887;57.196;-2.100;2023-02-22T08:01:23;7.89;82.13
22069;DHT22;13887;57.196;-2.100;2023-02-22T08:03:50;7.87;82.08
22069;DHT22;13887;57.196;-2.100;2023-02-22T08:06:18;7.84;82.07
22069;DHT22;13887;57.196;-2.100;2023-02-22T08:08:46;7.90;81.97
22069;DHT22;13887;57.196;-2.100;2023-02-22T08:11:13;7.67;82.27
22069;DHT22;13887;57.196;-2.100;2023-02-22T08:13:41;7.74;82.13
22069;DHT22;13887;57.196;-2.100;2023-02-22T08:16:08;7.79;81.83
22069;DHT22;13887;57.196;-2.100;2023-02-22T08:18:35;7.78;81.85
22069;DHT22;13887;57.196;-2.100;2023-02-22T08:21:04;7.78;81.78
22069;DHT22;13887;57.196;-2.100;2023-02-22T08:23:31;7.83;81.79
22069;DHT22;13887;57.196;-2.100;2023-02-22T08:26:09;7.82;81.56
22069;DHT22;13887;57.196;-2.100;2023-02-22T08:28:36;7.74;82.20
22069;DHT22;13887;57.196;-2.100;2023-02-22T08:31:03;7.76;81.98
22069;DHT22;13887;57.196;-2.100;2023-02-22T08:33:33;7.79;81.81
22069;DHT22;13887;57.196;-2.100;2023-02-22T08:36:01;7.73;81.76
22069;DHT22;13887;57.196;-2.100;2023-02-22T08:38:29;7.74;81.94
22069;DHT22;13887;57.196;-2.100;2023-02-22T08:40:56;7.79;81.72
22069;DHT22;13887;57.196;-2.100;2023-02-22T08:43:24;7.75;81.97
22069;DHT22;13887;57.196;-2.100;2023-02-22T08:45:52;7.77;81.87
22069;DHT22;13887;57.196;-2.100;2023-02-22T08:48:22;7.81;81.74
22069;DHT22;13887;57.196;-2.100;2023-02-22T08:50:49;7.79;81.59
22069;DHT22;13887;57.196;-2.100;2023-02-22T08:53:17;7.77;81.71
22069;DHT22;13887;57.196;-2.100;2023-02-22T08:55:44;7.78;81.48
22069;DHT22;13887;57.196;-2.100;2023-02-22T08:58:11;7.64;81.12
22069;DHT22;13887;57.196;-2.100;2023-02-22T09:00:40;7.57;81.38
22069;DHT22;13887;57.196;-2.100;2023-02-22T09:03:12;7.49;81.14
22069;DHT22;13887;57.196;-2.100;2023-02-22T09:05:42;7.49;81.07
22069;DHT22;13887;57.196;-2.100;2023-02-22T09:08:09;7.47;80.60
22069;DHT22;13887;57.196;-2.100;2023-02-22T09:10:36;7.48;80.78
22069;DHT22;13887;57.196;-2.100;2023-02-22T09:13:04;7.53;80.85
22069;DHT22;13887;57.196;-2.100;2023-02-22T09:15:32;7.59;80.80
22069;DHT22;13887;57.196;-2.100;2023-02-22T09:18:04;7.55;80.98
22069;DHT22;13887;57.196;-2.100;2023-02-22T09:20:31;7.60;80.80
22069;DHT22;13887;57.196;-2.100;2023-02-22T09:22:58;7.55;81.06
22069;DHT22;13887;57.196;-2.100;2023-02-22T09:25:25;7.55;81.25
22069;DHT22;13887;57.196;-2.100;2023-02-22T09:27:53;7.60;81.19
22069;DHT22;13887;57.196;-2.100;2023-02-22T09:30:27;7.63;81.19
22069;DHT22;13887;57.196;-2.100;2023-02-22T09:33:18;7.65;81.32
22069;DHT22;13887;57.196;-2.100;2023-02-22T09:35:47;7.58;81.57
22069;DHT22;13887;57.196;-2.100;2023-02-22T09:38:20;7.54;81.68
22069;DHT22;13887;57.196;-2.100;2023-02-22T09:41:07;7.54;81.63
22069;DHT22;13887;57.196;-2.100;2023-02-22T09:43:48;7.58;81.37
22069;DHT22;13887;57.196;-2.100;2023-02-22T09:46:35;7.57;81.37
22069;DHT22;13887;57.196;-2.100;2023-02-22T09:49:30;7.57;81.59
22069;DHT22;13887;57.196;-2.100;2023-02-22T09:52:15;7.50;80.89
22069;DHT22;13887;57.196;-2.100;2023-02-22T09:54:47;7.48;81.16
22069;DHT22;13887;57.196;-2.100;2023-02-22T10:00:17;7.46;81.18
22069;DHT22;13887;57.196;-2.100;2023-02-22T10:03:11;7.49;80.94
22069;DHT22;13887;57.196;-2.100;2023-02-22T10:05:42;7.54;81.02
22069;DHT22;13887;57.196;-2.100;2023-02-22T10:08:13;7.57;81.07
22069;DHT22;13887;57.196;-2.100;2023-02-22T10:10:42;7.56;81.01
22069;DHT22;13887;57.196;-2.100;2023-02-22T10:13:27;7.61;81.19
22069;DHT22;13887;57.196;-2.100;2023-02-22T10:16:02;7.61;81.08
22069;DHT22;13887;57.196;-2.100;2023-02-22T10:27:21;7.57;81.33
22069;DHT22;13887;57.196;-2.100;2023-02-22T10:29:52;7.58;80.75
22069;DHT22;13887;57.196;-2.100;2023-02-22T10:32:28;7.58;81.01
22069;DHT22;13887;57.196;-2.100;2023-02-22T10:34:59;7.61;80.88
22069;DHT22;13887;57.196;-2.100;2023-02-22T10:37:33;7.61;81.19
22069;DHT22;13887;57.196;-2.100;2023-02-22T10:42:39;7.65;81.32
22069;DHT22;13887;57.196;-2.100;2023-02-22T10:45:26;7.68;81.42
22069;DHT22;13887;57.196;-2.100;2023-02-22T10:47:58;7.65;81.65
22069;DHT22;13887;57.196;-2.100;2023-02-22T10:50:29;7.67;81.81
22069;DHT22;13887;57.196;-2.100;2023-02-22T10:52:57;7.65;81.99
22069;DHT22;13887;57.196;-2.100;2023-02-22T10:55:26;7.65;82.10
22069;DHT22;13887;57.196;-2.100;2023-02-22T10:58:02;7.71;81.90
22069;DHT22;13887;57.196;-2.100;2023-02-22T11:00:37;7.71;82.05
22069;DHT22;13887;57.196;-2.100;2023-02-22T11:03:23;7.72;82.20
22069;DHT22;13887;57.196;-2.100;2023-02-22T11:05:50;7.73;82.26
22069;DHT22;13887;57.196;-2.100;2023-02-22T11:08:27;7.74;82.23
22069;DHT22;13887;57.196;-2.100;2023-02-22T11:10:59;7.74;82.53
22069;DHT22;13887;57.196;-2.100;2023-02-22T11:13:37;7.76;82.44
22069;DHT22;13887;57.196;-2.100;2023-02-22T11:18:46;7.74;83.00
22069;DHT22;13887;57.196;-2.100;2023-02-22T11:21:20;7.76;83.02
22069;DHT22;13887;57.196;-2.100;2023-02-22T11:23:49;7.75;83.17
22069;DHT22;13887;57.196;-2.100;2023-02-22T11:26:27;7.75;83.44
22069;DHT22;13887;57.196;-2.100;2023-02-22T11:28:55;7.77;83.22
22069;DHT22;13887;57.196;-2.100;2023-02-22T11:31:25;7.76;83.56
22069;DHT22;13887;57.196;-2.100;2023-02-22T11:34:01;7.76;83.45
22069;DHT22;13887;57.196;-2.100;2023-02-22T11:36:34;7.77;83.55
22069;DHT22;13887;57.196;-2.100;2023-02-22T11:39:28;7.79;83.52
22069;DHT22;13887;57.196;-2.100;2023-02-22T11:41:56;7.81;83.39
22069;DHT22;13887;57.196;-2.100;2023-02-22T11:44:31;7.79;83.45
22069;DHT22;13887;57.196;-2.100;2023-02-22T11:47:02;7.79;83.62
22069;DHT22;13887;57.196;-2.100;2023-02-22T11:49:38;7.79;83.55
22069;DHT22;13887;57.196;-2.100;2023-02-22T11:52:34;7.82;83.29
22069;DHT22;13887;57.196;-2.100;2023-02-22T12:01:06;7.81;83.06
22069;DHT22;13887;57.196;-2.100;2023-02-22T12:18:03;7.82;82.79
22069;DHT22;13887;57.196;-2.100;2023-02-22T12:20:46;7.79;82.84
22069;DHT22;13887;57.196;-2.100;2023-02-22T12:23:23;7.81;82.83
22069;DHT22;13887;57.196;-2.100;2023-02-22T12:26:06;7.82;82.89
22069;DHT22;13887;57.196;-2.100;2023-02-22T12:28:40;7.81;82.65
22069;DHT22;13887;57.196;-2.100;2023-02-22T12:31:14;7.79;82.44
22069;DHT22;13887;57.196;-2.100;2023-02-22T12:36:39;7.78;82.00
22069;DHT22;13887;57.196;-2.100;2023-02-22T12:48:17;7.82;81.91
22069;DHT22;13887;57.196;-2.100;2023-02-22T12:50:52;7.84;81.95
22069;DHT22;13887;57.196;-2.100;2023-02-22T12:53:34;7.84;81.85
22069;DHT22;13887;57.196;-2.100;2023-02-22T12:56:24;7.86;81.90
22069;DHT22;13887;57.196;-2.100;2023-02-22T12:59:13;7.85;82.10
22069;DHT22;13887;57.196;-2.100;2023-02-22T13:01:45;7.86;82.20
22069;DHT22;13887;57.196;-2.100;2023-02-22T13:04:15;7.87;82.21
22069;DHT22;13887;57.196;-2.100;2023-02-22T13:10:02;7.88;82.13
22069;DHT22;13887;57.196;-2.100;2023-02-22T13:12:56;7.90;82.02
22069;DHT22;13887;57.196;-2.100;2023-02-22T13:18:11;7.87;81.62
22069;DHT22;13887;57.196;-2.100;2023-02-22T13:28:42;7.87;81.30
22069;DHT22;13887;57.196;-2.100;2023-02-22T13:42:49;7.83;80.91
22069;DHT22;13887;57.196;-2.100;2023-02-22T13:53:38;7.84;80.48
22069;DHT22;13887;57.196;-2.100;2023-02-22T13:56:09;7.84;80.65
22069;DHT22;13887;57.196;-2.100;2023-02-22T13:58:57;7.84;80.38
22069;DHT22;13887;57.196;-2.100;2023-02-22T14:07:01;7.83;79.92
22069;DHT22;13887;57.196;-2.100;2023-02-22T14:17:59;7.81;79.59
22069;DHT22;13887;57.196;-2.100;2023-02-22T14:23:36;7.83;79.75
22069;DHT22;13887;57.196;-2.100;2023-02-22T14:26:13;7.78;79.85
22069;DHT22;13887;57.196;-2.100;2023-02-22T14:28:50;7.78;79.11
22069;DHT22;13887;57.196;-2.100;2023-02-22T14:31:20;7.78;79.30
22069;DHT22;13887;57.196;-2.100;2023-02-22T14:34:07;7.78;79.31
22069;DHT22;13887;57.196;-2.100;2023-02-22T14:39:13;7.77;79.16
22069;DHT22;13887;57.196;-2.100;2023-02-22T14:41:47;7.79;79.11
22069;DHT22;13887;57.196;-2.100;2023-02-22T14:44:23;7.81;79.39
22069;DHT22;13887;57.196;-2.100;2023-02-22T14:46:55;7.81;79.37
22069;DHT22;13887;57.196;-2.100;2023-02-22T14:49:30;7.79;78.78
22069;DHT22;13887;57.196;-2.100;2023-02-22T14:52:03;7.75;79.17
22069;DHT22;13887;57.196;-2.100;2023-02-22T14:55:03;7.75;79.27
22069;DHT22;13887;57.196;-2.100;2023-02-22T14:58:09;7.76;79.35
22069;DHT22;13887;57.196;-2.100;2023-02-22T15:00:47;7.78;79.42
22069;DHT22;13887;57.196;-2.100;2023-02-22T15:03:30;7.73;79.55
22069;DHT22;13887;57.196;-2.100;2023-02-22T15:06:13;7.74;79.58
22069;DHT22;13887;57.196;-2.100;2023-02-22T15:08:42;7.74;79.80
22069;DHT22;13887;57.196;-2.100;2023-02-22T15:11:26;7.75;79.95
22069;DHT22;13887;57.196;-2.100;2023-02-22T15:14:00;7.76;79.90
22069;DHT22;13887;57.196;-2.100;2023-02-22T15:16:33;7.76;79.98
22069;DHT22;13887;57.196;-2.100;2023-02-22T15:19:04;7.73;79.96
22069;DHT22;13887;57.196;-2.100;2023-02-22T15:21:34;7.71;79.75
22069;DHT22;13887;57.196;-2.100;2023-02-22T15:24:03;7.70;79.49
22069;DHT22;13887;57.196;-2.100;2023-02-22T15:26:39;7.70;79.46
22069;DHT22;13887;57.196;-2.100;2023-02-22T15:29:36;7.72;79.40
22069;DHT22;13887;57.196;-2.100;2023-02-22T15:34:54;7.74;79.56
22069;DHT22;13887;57.196;-2.100;2023-02-22T15:37:24;7.75;79.79
22069;DHT22;13887;57.196;-2.100;2023-02-22T15:39:52;7.74;79.85
22069;DHT22;13887;57.196;-2.100;2023-02-22T15:42:26;7.67;80.38
22069;DHT22;13887;57.196;-2.100;2023-02-22T15:44:56;7.65;80.62
22069;DHT22;13887;57.196;-2.100;2023-02-22T15:47:28;7.63;80.81
22069;DHT22;13887;57.196;-2.100;2023-02-22T15:50:30;7.60;80.91
22069;DHT22;13887;57.196;-2.100;2023-02-22T15:53:02;7.60;81.15
22069;DHT22;13887;57.196;-2.100;2023-02-22T15:58:20;7.50;81.68
22069;DHT22;13887;57.196;-2.100;2023-02-22T16:01:04;7.55;81.47
22069;DHT22;13887;57.196;-2.100;2023-02-22T16:03:39;7.59;81.04
22069;DHT22;13887;57.196;-2.100;2023-02-22T16:06:28;7.55;80.80
22069;DHT22;13887;57.196;-2.100;2023-02-22T16:08:58;7.55;80.67
22069;DHT22;13887;57.196;-2.100;2023-02-22T16:11:30;7.53;80.82
22069;DHT22;13887;57.196;-2.100;2023-02-22T16:14:03;7.53;80.93
22069;DHT22;13887;57.196;-2.100;2023-02-22T16:16:33;7.53;80.93
22069;DHT22;13887;57.196;-2.100;2023-02-22T16:21:51;7.53;81.28
22069;DHT22;13887;57.196;-2.100;2023-02-22T16:24:34;7.56;81.43
22069;DHT22;13887;57.196;-2.100;2023-02-22T16:29:40;7.49;82.35
22069;DHT22;13887;57.196;-2.100;2023-02-22T16:32:08;7.45;82.92
22069;DHT22;13887;57.196;-2.100;2023-02-22T16:34:36;7.45;82.76
22069;DHT22;13887;57.196;-2.100;2023-02-22T16:37:03;7.44;82.95
22069;DHT22;13887;57.196;-2.100;2023-02-22T16:39:31;7.43;82.89
22069;DHT22;13887;57.196;-2.100;2023-02-22T16:42:02;7.45;82.97
22069;DHT22;13887;57.196;-2.100;2023-02-22T16:44:30;7.43;82.77
22069;DHT22;13887;57.196;-2.100;2023-02-22T16:46:58;7.37;83.25
22069;DHT22;13887;57.196;-2.100;2023-02-22T16:49:26;7.39;83.23
22069;DHT22;13887;57.196;-2.100;2023-02-22T16:52:01;7.37;83.16
22069;DHT22;13887;57.196;-2.100;2023-02-22T16:54:35;7.38;83.10
22069;DHT22;13887;57.196;-2.100;2023-02-22T16:57:05;7.38;83.15
22069;DHT22;13887;57.196;-2.100;2023-02-22T16:59:38;7.39;83.03
22069;DHT22;13887;57.196;-2.100;2023-02-22T17:02:12;7.31;83.15
22069;DHT22;13887;57.196;-2.100;2023-02-22T17:04:39;7.32;83.15
22069;DHT22;13887;57.196;-2.100;2023-02-22T17:07:06;7.26;83.13
22069;DHT22;13887;57.196;-2.100;2023-02-22T17:09:35;7.30;82.83
22069;DHT22;13887;57.196;-2.100;2023-02-22T17:12:02;7.32;82.71
22069;DHT22;13887;57.196;-2.100;2023-02-22T17:14:32;7.33;82.58
22069;DHT22;13887;57.196;-2.100;2023-02-22T17:17:00;7.31;82.56
22069;DHT22;13887;57.196;-2.100;2023-02-22T17:19:27;7.27;82.34
22069;DHT22;13887;57.196;-2.100;2023-02-22T17:21:55;7.22;82.12
22069;DHT22;13887;57.196;-2.100;2023-02-22T17:24:23;7.20;81.92
22069;DHT22;13887;57.196;-2.100;2023-02-22T17:26:55;7.13;81.76
22069;DHT22;13887;57.196;-2.100;2023-02-22T17:29:24;7.16;81.62
22069;DHT22;13887;57.196;-2.100;2023-02-22T17:31:54;7.18;81.55
22069;DHT22;13887;57.196;-2.100;2023-02-22T17:34:21;7.17;81.42
22069;DHT22;13887;57.196;-2.100;2023-02-22T17:36:48;7.23;81.43
22069;DHT22;13887;57.196;-2.100;2023-02-22T17:39:15;7.20;81.46
22069;DHT22;13887;57.196;-2.100;2023-02-22T17:41:43;7.12;81.49
22069;DHT22;13887;57.196;-2.100;2023-02-22T17:44:10;7.14;81.27
22069;DHT22;13887;57.196;-2.100;2023-02-22T17:46:38;7.13;81.30
22069;DHT22;13887;57.196;-2.100;2023-02-22T17:49:08;7.12;81.50
22069;DHT22;13887;57.196;-2.100;2023-02-22T17:51:38;7.10;81.47
22069;DHT22;13887;57.196;-2.100;2023-02-22T17:54:05;7.11;81.13
22069;DHT22;13887;57.196;-2.100;2023-02-22T17:56:35;7.10;81.05
22069;DHT22;13887;57.196;-2.100;2023-02-22T17:59:02;7.12;80.56
22069;DHT22;13887;57.196;-2.100;2023-02-22T18:01:31;6.54;80.92
22069;DHT22;13887;57.196;-2.100;2023-02-22T18:04:00;6.78;80.81
22069;DHT22;13887;57.196;-2.100;2023-02-22T18:06:29;6.93;80.41
22069;DHT22;13887;57.196;-2.100;2023-02-22T18:08:59;7.00;80.11
22069;DHT22;13887;57.196;-2.100;2023-02-22T18:11:27;6.96;80.63
22069;DHT22;13887;57.196;-2.100;2023-02-22T18:13:58;7.02;80.43
22069;DHT22;13887;57.196;-2.100;2023-02-22T18:16:25;7.02;80.63
22069;DHT22;13887;57.196;-2.100;2023-02-22T18:18:54;7.08;80.56